TimePST,TemperatureF,Dew PointF,Humidity,Sea Level PressureIn,VisibilityMPH,Wind Direction,Wind SpeedMPH,Gust SpeedMPH,PrecipitationIn,Events,Conditions,WindDirDegrees,DateUTC
12:55 AM,21.9,10.0,60,30.13,10.0,West,5.8,-,N/A,,Clear,270,2012-12-19 08:55:00
1:55 AM,19.9,9.0,62,30.14,10.0,WNW,4.6,-,N/A,,Clear,290,2012-12-19 09:55:00
2:55 AM,19.9,8.1,60,30.17,10.0,WNW,6.9,-,N/A,,Clear,300,2012-12-19 10:55:00
3:55 AM,19.0,8.1,62,30.21,10.0,West,3.5,-,N/A,,Clear,270,2012-12-19 11:55:00
4:55 AM,17.1,9.0,71,30.22,10.0,Calm,Calm,-,N/A,,Clear,0,2012-12-19 12:55:00
5:55 AM,17.1,9.0,71,30.24,10.0,Calm,Calm,-,N/A,,Clear,0,2012-12-19 13:55:00
6:55 AM,17.1,6.1,62,30.26,10.0,West,5.8,-,N/A,,Clear,270,2012-12-19 14:55:00
7:55 AM,18.0,6.1,60,30.27,10.0,West,4.6,-,N/A,,Scattered Clouds,270,2012-12-19 15:55:00
8:55 AM,21.9,6.1,51,30.28,10.0,WNW,4.6,-,N/A,,Scattered Clouds,300,2012-12-19 16:55:00
9:55 AM,24.1,8.1,51,30.30,10.0,Calm,Calm,-,N/A,,Mostly Cloudy,0,2012-12-19 17:55:00
10:55 AM,27.0,12.0,53,30.27,10.0,Calm,Calm,-,N/A,,Mostly Cloudy,0,2012-12-19 18:55:00
11:55 AM,30.9,10.9,43,30.25,10.0,Calm,Calm,-,N/A,,Mostly Cloudy,0,2012-12-19 19:55:00
12:55 PM,34.0,9.0,35,30.23,10.0,Calm,Calm,-,N/A,,Mostly Cloudy,0,2012-12-19 20:55:00
1:55 PM,35.1,8.1,33,30.22,10.0,Calm,Calm,-,N/A,,Mostly Cloudy,0,2012-12-19 21:55:00
2:55 PM,37.0,8.1,30,30.21,10.0,Calm,Calm,-,N/A,,Mostly Cloudy,0,2012-12-19 22:55:00
3:55 PM,37.0,9.0,31,30.21,10.0,Calm,Calm,-,N/A,,Mostly Cloudy,0,2012-12-19 23:55:00
4:55 PM,33.1,12.9,43,30.23,10.0,SE,8.1,-,N/A,,Mostly Cloudy,140,2012-12-20 00:55:00
5:55 PM,30.9,12.0,46,30.23,10.0,SE,5.8,-,N/A,,Mostly Cloudy,140,2012-12-20 01:55:00
6:55 PM,30.0,10.9,45,30.23,10.0,ESE,6.9,-,N/A,,Mostly Cloudy,120,2012-12-20 02:55:00
7:55 PM,30.0,10.0,43,30.23,10.0,SE,8.1,-,N/A,,Scattered Clouds,140,2012-12-20 03:55:00
8:55 PM,28.0,10.9,49,30.22,10.0,Calm,Calm,-,N/A,,Scattered Clouds,0,2012-12-20 04:55:00
9:55 PM,27.0,12.0,53,30.22,10.0,South,3.5,-,N/A,,Scattered Clouds,180,2012-12-20 05:55:00
10:55 PM,25.0,12.9,60,30.21,10.0,Calm,Calm,-,N/A,,Partly Cloudy,0,2012-12-20 06:55:00
11:55 PM,24.1,12.9,62,30.19,10.0,NW,3.5,-,N/A,,Partly Cloudy,310,2012-12-20 07:55:00